createdAt,value
2022-11-14T00:00:56.615Z,0.00
2022-11-14T00:01:56.651Z,0.00
2022-11-14T00:02:56.553Z,0.00
2022-11-14T00:03:56.447Z,0.00
2022-11-14T00:04:56.406Z,0.00
2022-11-14T00:05:56.338Z,0.00
2022-11-14T00:06:56.350Z,0.00
2022-11-14T00:07:56.230Z,0.00
2022-11-14T00:08:56.172Z,0.00
2022-11-14T00:09:56.131Z,0.00
2022-11-14T00:10:56.062Z,0.00
2022-11-14T00:11:56.019Z,0.00
2022-11-14T00:12:55.950Z,0.00
2022-11-14T00:13:55.898Z,0.00
2022-11-14T00:14:55.844Z,0.00
2022-11-14T00:15:55.792Z,0.00
2022-11-14T00:16:55.742Z,0.00
2022-11-14T00:18:05.264Z,0.00
2022-11-14T00:18:55.616Z,0.00
2022-11-14T00:19:55.580Z,0.00
2022-11-14T00:20:55.509Z,0.00
2022-11-14T00:21:55.461Z,0.00
2022-11-14T00:22:55.399Z,0.00
2022-11-14T00:23:55.342Z,0.00
2022-11-14T00:24:55.299Z,0.00
2022-11-14T00:25:55.232Z,0.00
2022-11-14T00:26:55.176Z,0.00
2022-11-14T00:27:55.120Z,0.00
2022-11-14T00:28:55.079Z,0.00
2022-11-14T00:29:55.022Z,0.00
2022-11-14T00:30:54.970Z,0.00
2022-11-14T00:31:54.897Z,0.00
2022-11-14T00:32:54.842Z,0.00
2022-11-14T00:33:54.879Z,0.00
2022-11-14T00:34:54.744Z,0.00
2022-11-14T00:35:54.695Z,0.00
2022-11-14T00:36:54.621Z,0.00
2022-11-14T00:37:54.565Z,0.00
2022-11-14T00:38:54.518Z,0.00
2022-11-14T00:39:54.454Z,0.00
2022-11-14T00:40:54.413Z,0.00
2022-11-14T00:41:54.357Z,0.00
2022-11-14T00:42:54.290Z,0.00
2022-11-14T00:43:54.235Z,0.00
2022-11-14T00:44:54.195Z,0.00
2022-11-14T00:45:54.121Z,0.00
2022-11-14T00:46:54.069Z,0.00
2022-11-14T00:47:54.024Z,0.00
2022-11-14T00:48:53.956Z,0.00
2022-11-14T00:49:53.994Z,0.00
2022-11-14T00:50:53.858Z,0.00
2022-11-14T00:51:54.676Z,0.00
2022-11-14T00:52:53.734Z,0.00
2022-11-14T00:53:53.678Z,0.00
2022-11-14T00:54:53.635Z,0.00
2022-11-14T00:55:53.578Z,0.00
2022-11-14T00:56:53.518Z,0.00
2022-11-14T00:57:53.471Z,0.00
2022-11-14T00:58:53.401Z,0.00
2022-11-14T00:59:53.346Z,0.00
2022-11-14T01:00:53.330Z,0.00
2022-11-14T01:01:57.654Z,0.00
2022-11-14T01:02:53.188Z,0.00
2022-11-14T01:03:53.138Z,0.00
2022-11-14T01:04:53.083Z,0.00
2022-11-14T01:05:53.119Z,0.00
2022-11-14T01:06:52.957Z,0.00
2022-11-14T01:07:52.915Z,0.00
2022-11-14T01:08:52.918Z,0.00
2022-11-14T01:09:52.794Z,0.00
2022-11-14T01:10:52.746Z,0.00
2022-11-14T01:11:52.683Z,0.00
2022-11-14T01:12:52.625Z,0.00
2022-11-14T01:13:52.578Z,0.00
2022-11-14T01:14:52.513Z,0.00
2022-11-14T01:15:52.503Z,0.00
2022-11-14T01:16:52.409Z,0.00
2022-11-14T01:17:52.352Z,0.00
2022-11-14T01:18:52.293Z,0.00
2022-11-14T01:19:52.235Z,0.00
2022-11-14T01:20:52.208Z,0.00
2022-11-14T01:21:52.219Z,0.00
2022-11-14T01:22:52.072Z,0.00
2022-11-14T01:23:52.015Z,0.00
2022-11-14T01:24:51.961Z,0.00
2022-11-14T01:25:51.921Z,0.00
2022-11-14T01:26:51.851Z,0.00
2022-11-14T01:27:51.796Z,0.00
2022-11-14T01:28:51.738Z,0.00
2022-11-14T01:29:51.686Z,0.00
2022-11-14T01:30:51.640Z,0.00
2022-11-14T01:31:51.573Z,0.00
2022-11-14T01:32:51.517Z,0.00
2022-11-14T01:33:51.466Z,0.00
2022-11-14T01:34:51.408Z,0.00
2022-11-14T01:35:51.366Z,0.00
2022-11-14T01:36:51.301Z,0.00
2022-11-14T01:37:51.335Z,0.00
2022-11-14T01:38:51.188Z,0.00
2022-11-14T01:39:51.144Z,0.00
2022-11-14T01:40:51.077Z,0.00
2022-11-14T01:41:51.021Z,0.00
2022-11-14T01:42:50.980Z,0.00
2022-11-14T01:43:50.910Z,0.00
2022-11-14T01:44:50.855Z,0.00
2022-11-14T01:45:50.798Z,0.00
2022-11-14T01:46:50.758Z,0.00
2022-11-14T01:47:51.704Z,0.00
2022-11-14T01:48:50.635Z,0.00
2022-11-14T01:49:50.579Z,0.00
2022-11-14T01:50:50.522Z,0.00
2022-11-14T01:51:50.468Z,0.00
2022-11-14T01:52:50.427Z,0.00
2022-11-14T01:53:50.451Z,0.00
2022-11-14T01:54:50.312Z,0.00
2022-11-14T01:55:50.247Z,0.00
2022-11-14T01:56:50.196Z,0.00
2022-11-14T01:57:50.153Z,0.00
2022-11-14T01:58:50.080Z,0.00
2022-11-14T01:59:50.026Z,0.00
2022-11-14T02:00:49.969Z,0.00
2022-11-14T02:01:49.980Z,0.00
2022-11-14T02:02:49.874Z,0.00
2022-11-14T02:03:49.801Z,0.00
2022-11-14T02:04:49.748Z,0.00
2022-11-14T02:05:49.694Z,0.00
2022-11-14T02:06:49.700Z,0.00
2022-11-14T02:07:49.594Z,0.00
2022-11-14T02:08:49.526Z,0.00
2022-11-14T02:09:49.563Z,0.00
2022-11-14T02:10:49.418Z,0.00
2022-11-14T02:11:49.375Z,0.00
2022-11-14T02:12:49.320Z,0.00
2022-11-14T02:13:49.251Z,0.00
2022-11-14T02:14:49.198Z,0.00
2022-11-14T02:15:49.140Z,0.00
2022-11-14T02:17:07.716Z,0.00
2022-11-14T02:17:49.049Z,0.00
2022-11-14T02:18:48.974Z,0.00
2022-11-14T02:19:49.005Z,0.00
2022-11-14T02:20:48.862Z,0.00
2022-11-14T02:21:48.808Z,0.00
2022-11-14T02:22:48.753Z,0.00
2022-11-14T02:23:48.696Z,0.00
2022-11-14T02:24:48.658Z,0.00
2022-11-14T02:25:48.680Z,0.00
2022-11-14T02:26:48.530Z,0.00
2022-11-14T02:27:48.472Z,0.00
2022-11-14T02:28:48.416Z,0.00
2022-11-14T02:29:48.365Z,0.00
2022-11-14T02:30:48.328Z,0.00
2022-11-14T02:31:48.263Z,0.00
2022-11-14T02:33:10.151Z,0.00
2022-11-14T02:33:48.139Z,0.00
2022-11-14T02:34:48.088Z,0.00
2022-11-14T02:35:48.046Z,0.00
2022-11-14T02:36:47.974Z,0.00
2022-11-14T02:37:47.936Z,0.00
2022-11-14T02:38:47.863Z,0.00
2022-11-14T02:39:47.806Z,0.00
2022-11-14T02:40:47.773Z,0.00
2022-11-14T02:41:47.787Z,0.00
2022-11-14T02:42:47.656Z,0.00
2022-11-14T02:43:47.587Z,0.00
2022-11-14T02:44:47.531Z,0.00
2022-11-14T02:45:47.496Z,0.00
2022-11-14T02:46:47.419Z,0.00
2022-11-14T02:47:47.362Z,0.00
2022-11-14T02:48:47.323Z,0.00
2022-11-14T02:49:47.265Z,0.00
2022-11-14T02:50:47.210Z,0.00
2022-11-14T02:51:47.143Z,0.00
2022-11-14T02:52:47.090Z,0.00
2022-11-14T02:53:47.031Z,0.00
2022-11-14T02:54:51.633Z,0.00
2022-11-14T02:55:46.934Z,0.00
2022-11-14T02:56:46.863Z,0.00
2022-11-14T02:57:46.913Z,0.00
2022-11-14T02:58:46.753Z,0.00
2022-11-14T02:59:46.712Z,0.00
2022-11-14T03:01:13.476Z,0.00
2022-11-14T03:01:46.685Z,0.00
2022-11-14T03:02:46.530Z,0.00
2022-11-14T03:03:46.490Z,0.00
2022-11-14T03:04:46.420Z,0.00
2022-11-14T03:05:46.365Z,0.00
2022-11-14T03:06:46.376Z,0.00
2022-11-14T03:07:46.251Z,0.00
2022-11-14T03:08:46.211Z,0.00
2022-11-14T03:09:46.139Z,0.00
2022-11-14T03:10:46.088Z,0.00
2022-11-14T03:11:46.026Z,0.00
2022-11-14T03:12:45.975Z,0.00
2022-11-14T03:13:46.023Z,0.00
2022-11-14T03:14:45.874Z,0.00
2022-11-14T03:15:45.805Z,0.00
2022-11-14T03:16:45.751Z,0.00
2022-11-14T03:17:45.693Z,0.00
2022-11-14T03:18:45.637Z,0.00
2022-11-14T03:19:45.595Z,0.00
2022-11-14T03:20:45.527Z,0.00
2022-11-14T03:21:45.470Z,0.00
2022-11-14T03:22:45.430Z,0.00
2022-11-14T03:23:45.359Z,0.00
2022-11-14T03:24:45.304Z,0.00
2022-11-14T03:25:45.260Z,0.00
2022-11-14T03:26:45.215Z,0.00
2022-11-14T03:27:45.134Z,0.00
2022-11-14T03:28:45.080Z,0.00
2022-11-14T03:29:45.125Z,0.00
2022-11-14T03:30:44.966Z,0.00
2022-11-14T03:31:44.925Z,0.00
2022-11-14T03:32:44.856Z,0.00
2022-11-14T03:33:44.803Z,0.00
2022-11-14T03:34:44.758Z,0.00
2022-11-14T03:35:44.688Z,0.00
2022-11-14T03:36:44.652Z,0.00
2022-11-14T03:37:44.574Z,0.00
2022-11-14T03:38:44.526Z,0.00
2022-11-14T03:39:44.470Z,0.00
2022-11-14T03:40:44.424Z,0.00
2022-11-14T03:41:44.374Z,0.00
2022-11-14T03:42:44.299Z,0.00
2022-11-14T03:43:44.241Z,0.00
2022-11-14T03:44:44.192Z,0.00
2022-11-14T03:45:44.223Z,0.00
2022-11-14T03:46:44.074Z,0.00
2022-11-14T03:47:44.034Z,0.00
2022-11-14T03:48:43.962Z,0.00
2022-11-14T03:49:43.912Z,0.00
2022-11-14T03:50:43.851Z,0.00
2022-11-14T03:51:43.816Z,0.00
2022-11-14T03:52:43.738Z,0.00
2022-11-14T03:53:43.684Z,0.00
2022-11-14T03:54:43.625Z,0.00
2022-11-14T03:55:43.569Z,0.00
2022-11-14T03:56:43.512Z,0.00
2022-11-14T03:57:43.473Z,0.00
2022-11-14T03:58:43.401Z,0.00
2022-11-14T03:59:43.345Z,0.00
2022-11-14T04:00:43.336Z,0.00
2022-11-14T04:01:43.325Z,0.00
2022-11-14T04:02:43.192Z,0.00
2022-11-14T04:03:43.124Z,0.00
2022-11-14T04:04:43.067Z,0.00
2022-11-14T04:05:43.012Z,0.00
2022-11-14T04:06:42.970Z,0.00
2022-11-14T04:07:42.946Z,0.00
2022-11-14T04:08:42.840Z,0.00
2022-11-14T04:09:42.787Z,0.00
2022-11-14T04:10:42.727Z,0.00
2022-11-14T04:11:42.672Z,0.00
2022-11-14T04:12:42.619Z,0.00
2022-11-14T04:13:42.576Z,0.00
2022-11-14T04:14:42.504Z,0.00
2022-11-14T04:15:42.448Z,0.00
2022-11-14T04:16:42.393Z,0.00
2022-11-14T04:17:42.534Z,0.00
2022-11-14T04:18:42.278Z,0.00
2022-11-14T04:19:42.224Z,0.00
2022-11-14T04:20:42.175Z,0.00
2022-11-14T04:21:42.114Z,0.00
2022-11-14T04:22:42.054Z,0.00
2022-11-14T04:23:42.016Z,0.00
2022-11-14T04:24:41.959Z,0.00
2022-11-14T04:25:41.889Z,0.00
2022-11-14T04:26:41.830Z,0.00
2022-11-14T04:27:41.777Z,0.00
2022-11-14T04:28:41.738Z,0.00
2022-11-14T04:29:41.669Z,0.00
2022-11-14T04:30:41.607Z,0.00
2022-11-14T04:31:41.555Z,0.00
2022-11-14T04:32:41.491Z,0.00
2022-11-14T04:33:41.547Z,0.00
2022-11-14T04:34:41.395Z,0.00
2022-11-14T04:35:41.326Z,0.00
2022-11-14T04:36:41.268Z,0.00
2022-11-14T04:37:41.213Z,0.00
2022-11-14T04:38:41.170Z,0.00
2022-11-14T04:39:41.101Z,0.00
2022-11-14T04:40:41.044Z,0.00
2022-11-14T04:41:40.987Z,0.00
2022-11-14T04:42:40.940Z,0.00
2022-11-14T04:43:40.890Z,0.00
2022-11-14T04:44:40.868Z,0.00
2022-11-14T04:45:40.761Z,0.00
2022-11-14T04:46:40.706Z,0.00
2022-11-14T04:47:40.650Z,0.00
2022-11-14T04:48:40.608Z,0.00
2022-11-14T04:49:40.630Z,0.00
2022-11-14T04:50:40.478Z,0.00
2022-11-14T04:51:40.423Z,0.00
2022-11-14T04:52:40.387Z,0.00
2022-11-14T04:53:40.325Z,0.00
2022-11-14T04:54:40.254Z,0.00
2022-11-14T04:55:40.202Z,0.00
2022-11-14T04:56:40.143Z,0.00
2022-11-14T04:57:40.107Z,0.00
2022-11-14T04:58:40.032Z,0.00
2022-11-14T04:59:39.973Z,0.00
2022-11-14T05:00:39.918Z,0.00
2022-11-14T05:01:39.912Z,0.00
2022-11-14T05:02:39.820Z,0.00
2022-11-14T05:03:39.746Z,0.00
2022-11-14T05:04:39.710Z,0.00
2022-11-14T05:05:42.263Z,0.00
2022-11-14T05:06:39.580Z,0.00
2022-11-14T05:07:39.524Z,0.00
2022-11-14T05:08:39.491Z,0.00
2022-11-14T05:09:39.413Z,0.00
2022-11-14T05:10:39.355Z,0.00
2022-11-14T05:11:39.299Z,0.00
2022-11-14T05:12:39.243Z,0.00
2022-11-14T05:13:39.187Z,0.00
2022-11-14T05:14:39.150Z,0.00
2022-11-14T05:15:39.072Z,0.00
2022-11-14T05:16:39.019Z,0.00
2022-11-14T05:17:38.961Z,0.00
2022-11-14T05:18:42.873Z,0.00
2022-11-14T05:19:38.864Z,0.00
2022-11-14T05:20:38.808Z,0.00
2022-11-14T05:21:38.735Z,0.00
2022-11-14T05:22:38.678Z,0.00
2022-11-14T05:23:38.621Z,0.00
2022-11-14T05:24:38.564Z,0.00
2022-11-14T05:25:38.525Z,0.00
2022-11-14T05:26:38.466Z,0.00
2022-11-14T05:27:38.399Z,0.00
2022-11-14T05:28:38.342Z,0.00
2022-11-14T05:29:38.287Z,0.00
2022-11-14T05:30:38.243Z,0.00
2022-11-14T05:31:38.177Z,0.00
2022-11-14T05:32:38.129Z,0.00
2022-11-14T05:33:38.058Z,0.00
2022-11-14T05:34:38.001Z,0.00
2022-11-14T05:35:37.958Z,0.00
2022-11-14T05:36:37.901Z,0.00
2022-11-14T05:37:37.848Z,0.00
2022-11-14T05:38:37.779Z,0.00
2022-11-14T05:39:37.720Z,0.00
2022-11-14T05:40:37.666Z,0.00
2022-11-14T05:41:37.621Z,0.00
2022-11-14T05:42:37.551Z,0.00
2022-11-14T05:43:37.497Z,0.00
2022-11-14T05:44:37.437Z,0.00
2022-11-14T05:45:37.397Z,0.00
2022-11-14T05:46:37.323Z,0.00
2022-11-14T05:47:37.285Z,0.00
2022-11-14T05:48:37.209Z,0.00
2022-11-14T05:49:37.157Z,0.00
2022-11-14T05:50:37.098Z,0.00
2022-11-14T05:51:37.046Z,0.00
2022-11-14T05:52:37.005Z,0.00
2022-11-14T05:53:36.928Z,0.00
2022-11-14T05:54:36.883Z,0.00
2022-11-14T05:55:36.816Z,4.00
2022-11-14T05:56:36.765Z,0.00
2022-11-14T05:57:36.707Z,0.00
2022-11-14T05:58:36.659Z,0.00
2022-11-14T05:59:36.589Z,4.00
2022-11-14T06:00:44.291Z,0.00
2022-11-14T06:01:36.554Z,0.00
2022-11-14T06:02:36.432Z,0.00
2022-11-14T06:03:36.362Z,4.00
2022-11-14T06:04:36.307Z,4.00
2022-11-14T06:05:36.251Z,8.00
2022-11-14T06:06:36.193Z,4.00
2022-11-14T06:07:36.204Z,8.00
2022-11-14T06:08:36.739Z,8.00
2022-11-14T06:09:36.028Z,12.00
2022-11-14T06:10:35.987Z,12.00
2022-11-14T06:11:35.910Z,12.00
2022-11-14T06:12:35.871Z,12.00
2022-11-14T06:13:35.797Z,16.00
2022-11-14T06:14:35.752Z,16.00
2022-11-14T06:15:35.691Z,20.00
2022-11-14T06:16:35.629Z,24.00
2022-11-14T06:17:35.576Z,24.00
2022-11-14T06:18:35.514Z,24.00
2022-11-14T06:19:35.479Z,32.00
2022-11-14T06:20:44.794Z,36.00
2022-11-14T06:21:35.355Z,40.00
2022-11-14T06:22:35.337Z,36.00
2022-11-14T06:23:35.252Z,44.00
2022-11-14T06:24:35.209Z,52.00
2022-11-14T06:25:35.145Z,60.00
2022-11-14T06:26:35.113Z,72.00
2022-11-14T06:27:35.048Z,96.00
2022-11-14T06:28:34.986Z,100.00
2022-11-14T06:29:35.739Z,108.00
2022-11-14T06:30:34.876Z,104.00
2022-11-14T06:31:34.824Z,108.00
2022-11-14T06:32:34.767Z,96.00
2022-11-14T06:33:34.718Z,92.00
2022-11-14T06:34:34.637Z,92.00
2022-11-14T06:35:34.576Z,92.00
2022-11-14T06:36:34.539Z,96.00
2022-11-14T06:37:34.466Z,108.00
2022-11-14T06:38:34.408Z,120.00
2022-11-14T06:39:34.367Z,120.00
2022-11-14T06:40:34.284Z,132.00
2022-11-14T06:41:34.257Z,128.00
2022-11-14T06:42:34.187Z,124.00
2022-11-14T06:43:34.102Z,120.00
2022-11-14T06:44:34.094Z,124.00
2022-11-14T06:45:34.015Z,120.00
2022-11-14T06:46:33.983Z,124.00
2022-11-14T06:47:33.939Z,120.00
2022-11-14T06:48:33.857Z,112.00
2022-11-14T06:49:37.915Z,112.00
2022-11-14T06:50:33.713Z,100.00
2022-11-14T06:51:33.696Z,92.00
2022-11-14T06:52:33.661Z,88.00
2022-11-14T06:53:33.571Z,76.00
2022-11-14T06:54:33.525Z,72.00
2022-11-14T06:55:33.458Z,68.00
2022-11-14T06:56:33.377Z,76.00
2022-11-14T06:57:33.347Z,76.00
2022-11-14T06:58:33.555Z,80.00
2022-11-14T06:59:33.211Z,84.00
2022-11-14T07:00:33.180Z,88.00
2022-11-14T07:01:33.120Z,92.00
2022-11-14T07:02:33.173Z,100.00
2022-11-14T07:03:33.074Z,120.00
2022-11-14T07:04:32.936Z,140.00
2022-11-14T07:05:32.938Z,156.00
2022-11-14T07:06:32.816Z,168.00
2022-11-14T07:07:32.815Z,176.00
2022-11-14T07:08:33.016Z,192.00
2022-11-14T07:09:32.657Z,220.00
2022-11-14T07:10:32.618Z,304.00
2022-11-14T07:11:32.547Z,344.00
2022-11-14T07:12:32.486Z,332.00
2022-11-14T07:13:32.421Z,228.00
2022-11-14T07:14:32.379Z,224.00
2022-11-14T07:15:32.295Z,336.00
2022-11-14T07:16:32.279Z,292.00
2022-11-14T07:17:32.164Z,596.00
2022-11-14T07:18:32.509Z,300.00
2022-11-14T07:19:32.098Z,260.00
2022-11-14T07:20:32.015Z,1968.00
2022-11-14T07:21:31.978Z,568.00
2022-11-14T07:22:31.893Z,384.00
2022-11-14T07:23:31.832Z,328.00
2022-11-14T07:24:31.788Z,412.00
2022-11-14T07:25:31.756Z,1592.00
2022-11-14T07:26:31.670Z,7320.00
2022-11-14T07:27:31.634Z,8696.00
2022-11-14T07:28:31.900Z,8580.00
2022-11-14T07:29:31.508Z,5684.00
2022-11-14T07:30:31.425Z,4972.00
2022-11-14T07:31:31.402Z,19072.00
2022-11-14T07:32:31.328Z,22240.00
2022-11-14T07:33:31.259Z,21504.00
2022-11-14T07:34:31.219Z,26432.00
2022-11-14T07:35:31.157Z,19136.00
2022-11-14T07:36:31.130Z,18688.00
2022-11-14T07:37:31.044Z,19872.00
2022-11-14T07:38:31.371Z,8108.00
2022-11-14T07:39:30.936Z,4512.00
2022-11-14T07:40:30.925Z,2836.00
2022-11-14T07:41:30.810Z,3992.00
2022-11-14T07:42:30.773Z,18304.00
2022-11-14T07:43:30.745Z,23232.00
2022-11-14T07:44:30.686Z,24096.00
2022-11-14T07:45:30.609Z,40768.00
2022-11-14T07:46:30.579Z,27744.00
2022-11-14T07:47:30.488Z,47424.00
2022-11-14T07:48:30.844Z,23648.00
2022-11-14T07:49:30.422Z,28416.00
2022-11-14T07:50:30.363Z,41728.00
2022-11-14T07:51:30.310Z,32928.00
2022-11-14T07:52:30.237Z,46592.00
2022-11-14T07:53:30.174Z,25760.00
2022-11-14T07:54:30.159Z,36704.00
2022-11-14T07:55:30.097Z,30336.00
2022-11-14T07:56:30.044Z,44352.00
2022-11-14T07:57:29.975Z,14752.00
2022-11-14T07:58:30.270Z,59072.00
2022-11-14T07:59:29.900Z,68192.00
2022-11-14T08:00:29.830Z,77216.00
2022-11-14T08:01:29.821Z,68672.00
2022-11-14T08:02:29.705Z,51520.00
2022-11-14T08:03:29.659Z,32704.00
2022-11-14T08:04:29.648Z,19104.00
2022-11-14T08:05:29.556Z,18944.00
2022-11-14T08:06:29.505Z,19296.00
2022-11-14T08:07:29.493Z,19232.00
2022-11-14T08:08:29.717Z,20288.00
2022-11-14T08:09:29.366Z,20544.00
2022-11-14T08:10:33.405Z,20416.00
2022-11-14T08:11:35.238Z,20928.00
2022-11-14T08:12:29.232Z,21024.00
2022-11-14T08:13:33.644Z,21184.00
2022-11-14T08:14:29.128Z,21792.00
2022-11-14T08:15:29.048Z,22176.00
2022-11-14T08:16:29.022Z,22528.00
2022-11-14T08:17:28.976Z,22848.00
2022-11-14T08:18:29.272Z,23200.00
2022-11-14T08:19:28.952Z,23936.00
2022-11-14T08:20:28.813Z,23968.00
2022-11-14T08:21:28.777Z,24576.00
2022-11-14T08:22:28.736Z,25472.00
2022-11-14T08:23:28.666Z,26112.00
2022-11-14T08:24:28.671Z,26816.00
2022-11-14T08:25:28.580Z,27488.00
2022-11-14T08:26:33.946Z,28000.00
2022-11-14T08:27:28.489Z,29088.00
2022-11-14T08:28:28.734Z,29920.00
2022-11-14T08:29:28.419Z,31168.00
2022-11-14T08:30:28.351Z,31872.00
2022-11-14T08:31:28.299Z,32736.00
2022-11-14T08:32:28.293Z,33408.00
2022-11-14T08:33:28.211Z,34752.00
2022-11-14T08:34:28.155Z,35264.00
2022-11-14T08:35:28.142Z,35744.00
2022-11-14T08:36:28.068Z,35808.00
2022-11-14T08:37:28.006Z,35488.00
2022-11-14T08:38:28.423Z,36800.00
2022-11-14T08:39:27.929Z,36160.00
2022-11-14T08:40:27.880Z,37312.00
2022-11-14T08:41:27.863Z,37472.00
2022-11-14T08:42:27.799Z,38176.00
2022-11-14T08:43:27.779Z,39200.00
2022-11-14T08:44:27.710Z,40032.00
2022-11-14T08:45:27.646Z,40320.00
2022-11-14T08:46:27.604Z,40608.00
2022-11-14T08:47:27.551Z,40608.00
2022-11-14T08:48:27.881Z,40864.00
2022-11-14T08:49:27.461Z,41088.00
2022-11-14T08:50:27.455Z,40832.00
2022-11-14T08:51:27.372Z,41600.00
2022-11-14T08:52:27.362Z,42272.00
2022-11-14T08:53:27.327Z,42400.00
2022-11-14T08:54:27.259Z,42656.00
2022-11-14T08:55:27.232Z,42688.00
2022-11-14T08:56:27.180Z,42912.00
2022-11-14T08:57:27.170Z,42880.00
2022-11-14T08:58:27.326Z,43296.00
2022-11-14T08:59:27.050Z,43648.00
2022-11-14T09:00:26.982Z,44416.00
2022-11-14T09:01:26.959Z,45568.00
2022-11-14T09:02:26.916Z,47392.00
2022-11-14T09:03:26.892Z,49792.00
2022-11-14T09:04:26.857Z,48768.00
2022-11-14T09:05:26.762Z,49472.00
2022-11-14T09:06:26.706Z,49856.00
2022-11-14T09:07:26.657Z,47584.00
2022-11-14T09:08:26.860Z,45920.00
2022-11-14T09:09:26.588Z,44000.00
2022-11-14T09:10:26.527Z,43616.00
2022-11-14T09:11:26.496Z,42592.00
2022-11-14T09:12:26.467Z,42912.00
2022-11-14T09:13:26.484Z,41792.00
2022-11-14T09:14:26.341Z,41472.00
2022-11-14T09:15:26.306Z,41280.00
2022-11-14T09:16:26.281Z,40128.00
2022-11-14T09:17:26.228Z,39072.00
2022-11-14T09:18:26.217Z,38656.00
2022-11-14T09:19:26.161Z,37664.00
2022-11-14T09:20:31.684Z,37408.00
2022-11-14T09:21:26.037Z,36832.00
2022-11-14T09:22:25.993Z,36384.00
2022-11-14T09:23:25.957Z,36320.00
2022-11-14T09:24:25.944Z,35584.00
2022-11-14T09:25:25.869Z,35040.00
2022-11-14T09:26:25.846Z,34016.00
2022-11-14T09:27:25.768Z,32864.00
2022-11-14T09:28:25.791Z,32288.00
2022-11-14T09:29:25.706Z,32448.00
2022-11-14T09:30:25.665Z,31968.00
2022-11-14T09:31:25.637Z,32000.00
2022-11-14T09:32:25.567Z,31648.00
2022-11-14T09:33:25.569Z,32032.00
2022-11-14T09:34:25.522Z,31680.00
2022-11-14T09:35:25.475Z,30048.00
2022-11-14T09:36:25.433Z,28704.00
2022-11-14T09:37:25.361Z,28608.00
2022-11-14T09:38:25.338Z,27840.00
2022-11-14T09:39:25.271Z,27680.00
2022-11-14T09:40:25.239Z,26656.00
2022-11-14T09:41:25.176Z,25536.00
2022-11-14T09:42:25.143Z,24608.00
2022-11-14T09:43:25.147Z,24352.00
2022-11-14T09:44:25.060Z,23872.00
2022-11-14T09:45:25.025Z,24352.00
2022-11-14T09:46:24.972Z,24800.00
2022-11-14T09:47:24.952Z,24320.00
2022-11-14T09:48:24.935Z,23648.00
2022-11-14T09:49:24.851Z,23808.00
2022-11-14T09:50:26.148Z,23712.00
2022-11-14T09:51:24.744Z,22624.00
2022-11-14T09:52:24.736Z,21792.00
2022-11-14T09:53:24.669Z,21184.00
2022-11-14T09:54:24.666Z,20768.00
2022-11-14T09:55:24.597Z,20384.00
2022-11-14T09:56:24.543Z,20000.00
2022-11-14T09:57:24.512Z,19360.00
2022-11-14T09:58:24.453Z,17600.00
2022-11-14T09:59:24.435Z,15776.00
2022-11-14T10:00:24.354Z,13760.00
2022-11-14T10:01:24.346Z,11836.00
2022-11-14T10:02:24.299Z,10724.00
2022-11-14T10:03:24.272Z,9756.00
2022-11-14T10:04:24.217Z,9196.00
2022-11-14T10:05:24.161Z,8796.00
2022-11-14T10:06:24.123Z,8556.00
2022-11-14T10:07:24.204Z,8296.00
2022-11-14T10:08:24.016Z,8164.00
2022-11-14T10:09:28.838Z,8036.00
2022-11-14T10:10:23.955Z,7920.00
2022-11-14T10:11:23.874Z,7848.00
2022-11-14T10:12:23.829Z,7808.00
2022-11-14T10:13:23.819Z,7712.00
2022-11-14T10:14:23.755Z,7644.00
2022-11-14T10:15:23.753Z,7576.00
2022-11-14T10:16:23.696Z,7528.00
2022-11-14T10:17:23.643Z,7448.00
2022-11-14T10:18:23.593Z,7376.00
2022-11-14T10:19:23.523Z,7360.00
2022-11-14T10:20:23.519Z,7308.00
2022-11-14T10:21:23.461Z,7248.00
2022-11-14T10:22:23.412Z,7268.00
2022-11-14T10:23:23.376Z,7172.00
2022-11-14T10:24:23.333Z,7128.00
2022-11-14T10:25:23.288Z,7044.00
2022-11-14T10:26:23.263Z,7056.00
2022-11-14T10:27:23.193Z,6984.00
2022-11-14T10:28:23.166Z,6920.00
2022-11-14T10:29:23.110Z,6876.00
2022-11-14T10:30:23.096Z,6848.00
2022-11-14T10:31:23.021Z,6776.00
2022-11-14T10:32:22.995Z,6736.00
2022-11-14T10:33:22.961Z,6684.00
2022-11-14T10:34:22.870Z,6624.00
2022-11-14T10:35:22.842Z,6592.00
2022-11-14T10:36:22.821Z,6552.00
2022-11-14T10:37:22.771Z,6524.00
2022-11-14T10:38:22.709Z,6516.00
2022-11-14T10:39:22.678Z,6444.00
2022-11-14T10:40:22.658Z,6440.00
2022-11-14T10:41:50.060Z,6400.00
2022-11-14T10:42:22.576Z,6356.00
2022-11-14T10:43:22.488Z,6348.00
2022-11-14T10:44:22.452Z,6324.00
2022-11-14T10:45:22.394Z,6304.00
2022-11-14T10:46:22.388Z,6280.00
2022-11-14T10:47:22.288Z,6252.00
2022-11-14T10:48:22.256Z,6236.00
2022-11-14T10:49:22.202Z,6188.00
2022-11-14T10:50:22.167Z,6148.00
2022-11-14T10:51:22.156Z,6140.00
2022-11-14T10:52:22.131Z,6100.00
2022-11-14T10:53:22.028Z,6064.00
2022-11-14T10:54:21.987Z,6012.00
2022-11-14T10:55:32.044Z,5980.00
2022-11-14T10:56:21.902Z,5960.00
2022-11-14T10:57:21.879Z,5928.00
2022-11-14T10:58:21.837Z,5888.00
2022-11-14T10:59:21.742Z,5872.00
2022-11-14T11:00:21.716Z,5816.00
2022-11-14T11:01:21.731Z,5796.00
2022-11-14T11:02:21.683Z,5724.00
2022-11-14T11:03:21.597Z,5696.00
2022-11-14T11:04:21.677Z,5668.00
2022-11-14T11:05:21.522Z,5652.00
2022-11-14T11:06:21.424Z,5628.00
2022-11-14T11:07:21.486Z,5600.00
2022-11-14T11:08:42.157Z,5588.00
2022-11-14T11:09:21.337Z,5564.00
2022-11-14T11:10:21.279Z,5540.00
2022-11-14T11:11:21.205Z,5508.00
2022-11-14T11:12:21.204Z,5504.00
2022-11-14T11:13:21.149Z,5484.00
2022-11-14T11:14:21.103Z,5448.00
2022-11-14T11:15:21.047Z,5424.00
2022-11-14T11:16:21.026Z,5356.00
2022-11-14T11:17:20.957Z,5360.00
2022-11-14T11:18:20.905Z,5324.00
2022-11-14T11:19:20.858Z,5276.00
2022-11-14T11:20:20.799Z,5236.00
2022-11-14T11:21:20.765Z,5220.00
2022-11-14T11:22:20.719Z,5184.00
2022-11-14T11:23:20.663Z,5164.00
2022-11-14T11:24:20.595Z,5136.00
2022-11-14T11:25:20.547Z,5112.00
2022-11-14T11:26:20.488Z,5092.00
2022-11-14T11:27:20.479Z,5064.00
2022-11-14T11:28:20.434Z,5052.00
2022-11-14T11:29:20.372Z,5040.00
2022-11-14T11:30:20.326Z,5036.00
2022-11-14T11:31:20.270Z,5048.00
2022-11-14T11:32:20.238Z,5008.00
2022-11-14T11:33:20.200Z,4964.00
2022-11-14T11:34:20.154Z,4940.00
2022-11-14T11:35:20.096Z,4932.00
2022-11-14T11:36:20.017Z,4972.00
2022-11-14T11:37:20.029Z,5016.00
2022-11-14T11:38:19.948Z,5004.00
2022-11-14T11:39:19.860Z,5092.00
2022-11-14T11:40:19.851Z,5128.00
2022-11-14T11:41:33.327Z,5108.00
2022-11-14T11:42:19.750Z,5036.00
2022-11-14T11:44:19.615Z,3604.00
2022-11-14T11:45:19.605Z,5152.00
2022-11-14T11:46:19.525Z,5196.00
2022-11-14T11:47:19.511Z,4456.00
2022-11-14T11:48:19.439Z,3216.00
2022-11-14T11:49:19.376Z,2056.00
2022-11-14T11:50:19.373Z,2148.00
2022-11-14T11:51:19.325Z,2188.00
2022-11-14T11:52:19.261Z,2500.00
2022-11-14T11:53:19.220Z,2588.00
2022-11-14T11:54:19.144Z,3188.00
2022-11-14T11:55:19.095Z,3220.00
2022-11-14T11:56:19.018Z,5336.00
2022-11-14T11:57:21.866Z,5596.00
2022-11-14T11:58:18.971Z,5476.00
2022-11-14T11:59:18.895Z,5096.00
2022-11-14T12:00:18.875Z,5052.00
2022-11-14T12:01:18.771Z,4976.00
2022-11-14T12:02:18.815Z,4968.00
2022-11-14T12:03:21.837Z,4880.00
2022-11-14T12:04:18.623Z,4836.00
2022-11-14T12:05:18.626Z,4808.00
2022-11-14T12:06:18.566Z,4764.00
2022-11-14T12:07:18.528Z,4640.00
2022-11-14T12:08:21.356Z,4576.00
2022-11-14T12:09:18.396Z,4328.00
2022-11-14T12:10:18.339Z,4132.00
2022-11-14T12:11:18.300Z,4092.00
2022-11-14T12:12:18.235Z,4100.00
2022-11-14T12:13:18.186Z,4068.00
2022-11-14T12:14:18.103Z,4000.00
2022-11-14T12:15:18.055Z,4028.00
2022-11-14T12:16:18.047Z,3912.00
2022-11-14T12:17:18.006Z,3824.00
2022-11-14T12:18:17.959Z,3732.00
2022-11-14T12:19:17.871Z,3668.00
2022-11-14T12:20:17.860Z,3624.00
2022-11-14T12:21:17.793Z,3564.00
2022-11-14T12:22:17.720Z,3556.00
2022-11-14T12:23:17.747Z,3536.00
2022-11-14T12:24:17.646Z,3480.00
2022-11-14T12:25:17.561Z,3388.00
2022-11-14T12:26:17.526Z,3380.00
2022-11-14T12:27:17.520Z,3416.00
2022-11-14T12:28:17.414Z,3376.00
2022-11-14T12:29:22.464Z,3288.00
2022-11-14T12:30:17.294Z,3340.00
2022-11-14T12:31:17.292Z,3316.00
2022-11-14T12:32:17.201Z,3324.00
2022-11-14T12:33:17.161Z,3264.00
2022-11-14T12:34:17.166Z,3212.00
2022-11-14T12:35:17.154Z,3176.00
2022-11-14T12:36:25.464Z,3188.00
2022-11-14T12:37:16.961Z,3120.00
2022-11-14T12:38:16.897Z,3112.00
2022-11-14T12:39:16.873Z,3136.00